createdAt,value
2019-04-03T16:43:30.953Z,96871.86
2019-04-03T16:45:59.555Z,96866.56
2019-04-03T16:48:28.121Z,96867.66
2019-04-03T16:50:58.934Z,96866.39
2019-04-03T16:53:27.215Z,96868.02
2019-04-03T16:56:19.001Z,96862.08
2019-04-03T16:58:47.864Z,96863.23
2019-04-03T17:01:16.493Z,96864.59
2019-04-03T17:03:45.610Z,96859.59
2019-04-03T17:06:15.879Z,96863.72
2019-04-03T17:08:44.436Z,96863.27
2019-04-03T17:11:13.008Z,96866.95
2019-04-03T17:13:41.785Z,96867.83
2019-04-03T17:16:10.822Z,96869.86
2019-04-03T17:18:39.858Z,96873.25
2019-04-03T17:21:08.539Z,96873.77
2019-04-03T17:23:38.182Z,96876.41
2019-04-03T17:26:08.907Z,96876.86
2019-04-03T17:28:38.003Z,96883.64
2019-04-03T17:31:07.521Z,96882.13
2019-04-03T17:33:36.475Z,96884.37
2019-04-03T17:36:05.593Z,96886.96
2019-04-03T17:38:34.583Z,96891.69
2019-04-03T17:41:05.065Z,96891.69
2019-04-03T17:43:33.774Z,96893.33
2019-04-03T17:46:02.549Z,96886.97
2019-04-03T17:48:31.434Z,96885.48
2019-04-03T17:51:02.256Z,96888.66
2019-04-03T17:53:30.242Z,96890.90
2019-04-03T17:55:58.839Z,96890.84
2019-04-03T17:58:29.655Z,65033.96
2019-04-03T18:00:58.260Z,65033.96
2019-04-03T18:03:27.036Z,65033.96
2019-04-03T18:05:56.900Z,65033.96
2019-04-03T18:08:25.848Z,65033.96
2019-04-03T18:10:54.431Z,65033.96
2019-04-03T18:13:23.370Z,65033.96
2019-04-03T18:15:53.844Z,65033.96
2019-04-03T18:18:24.462Z,65033.96
2019-04-03T18:20:53.011Z,65033.96
2019-04-03T18:23:21.665Z,65033.96
2019-04-03T18:25:50.784Z,65033.96
2019-04-03T18:28:20.989Z,65033.96
2019-04-03T18:30:49.518Z,65033.96
2019-04-03T18:33:18.111Z,65033.96
2019-04-03T18:35:47.764Z,65033.96
2019-04-03T18:38:16.588Z,65033.96
2019-04-03T18:40:46.398Z,65033.96
2019-04-03T18:43:15.387Z,65033.96
2019-04-03T18:45:44.082Z,65033.96
2019-04-03T18:48:12.752Z,65033.96
2019-04-03T18:50:41.360Z,65033.96
2019-04-03T18:53:10.375Z,65033.96
2019-04-03T18:55:39.216Z,65033.96
2019-04-03T18:58:07.777Z,65033.96
2019-04-03T19:00:36.320Z,65033.96
2019-04-03T19:03:05.971Z,65033.96
2019-04-03T19:05:35.188Z,65033.96
2019-04-03T19:08:13.132Z,65033.96
2019-04-03T19:11:10.636Z,65033.96
2019-04-03T19:13:49.405Z,65033.96
2019-04-03T19:16:29.011Z,65033.96
2019-04-03T19:18:48.570Z,65033.96
2019-04-03T19:21:24.677Z,65033.96
2019-04-03T19:23:53.719Z,65033.96
2019-04-03T19:26:22.089Z,65033.96
2019-04-03T19:28:50.688Z,65033.96
2019-04-03T19:31:20.050Z,65033.96
2019-04-03T19:33:48.890Z,65033.96
2019-04-03T19:36:17.585Z,65033.96
2019-04-03T19:38:46.162Z,65033.96
2019-04-03T19:41:14.818Z,65033.96
2019-04-03T19:43:44.017Z,65033.96
2019-04-03T19:46:13.597Z,65033.96
2019-04-03T19:48:42.208Z,65033.96
2019-04-03T19:51:10.884Z,65033.96
2019-04-03T19:53:39.575Z,65033.96
2019-04-03T19:56:08.253Z,65033.96
2019-04-03T19:58:36.807Z,65033.96
2019-04-03T20:01:08.180Z,65033.96
2019-04-03T20:03:36.430Z,65033.96
2019-04-03T20:06:05.037Z,65033.96
2019-04-03T20:08:33.600Z,65033.96
2019-04-03T20:11:03.074Z,65033.96
2019-04-03T20:13:33.134Z,65033.96
2019-04-03T20:16:01.695Z,65033.96
2019-04-03T20:18:31.295Z,65033.96
2019-04-03T20:21:00.002Z,65033.96
2019-04-03T20:23:30.165Z,65033.96
2019-04-03T20:25:58.655Z,65033.96
2019-04-03T20:28:28.402Z,65033.96
2019-04-03T20:30:56.856Z,65033.96
2019-04-03T20:33:25.396Z,65033.96
2019-04-03T20:35:54.038Z,65033.96
2019-04-03T20:38:23.870Z,65033.96
2019-04-03T20:40:52.368Z,65033.96
2019-04-03T20:45:08.553Z,96959.36
2019-04-03T20:47:36.977Z,96960.95
2019-04-03T20:50:07.071Z,96967.78
2019-04-03T20:52:36.183Z,96964.56
2019-04-03T20:55:05.790Z,96970.97
2019-04-03T20:57:34.352Z,96975.45
2019-04-03T21:00:03.924Z,96978.70
2019-04-03T21:02:34.254Z,96979.97
2019-04-03T21:05:20.959Z,96978.52
2019-04-03T21:07:49.586Z,96983.02
2019-04-03T21:10:18.158Z,96984.43
2019-04-03T21:12:46.701Z,96982.01
2019-04-03T21:15:15.184Z,96984.59
2019-04-03T21:17:43.675Z,96985.60
2019-04-03T21:20:12.448Z,96982.33
2019-04-03T21:22:41.030Z,96986.18
2019-04-03T21:25:09.546Z,96985.71
2019-04-03T21:27:40.087Z,96982.84
2019-04-03T21:30:09.438Z,96988.77
2019-04-03T21:32:38.121Z,96989.22
2019-04-03T21:35:07.013Z,96987.83
2019-04-03T21:37:35.566Z,96989.55
2019-04-03T21:40:05.230Z,96987.20
2019-04-03T21:42:33.987Z,96990.63
2019-04-03T21:45:07.318Z,96993.92
2019-04-03T21:47:34.730Z,96986.41
2019-04-03T21:50:03.923Z,96992.59
2019-04-03T21:52:32.919Z,96991.84
2019-04-03T21:55:04.600Z,96993.81
2019-04-03T21:57:31.845Z,96989.16
2019-04-03T22:00:00.283Z,96985.03
2019-04-03T22:02:28.800Z,96986.52
2019-04-03T22:04:57.423Z,96983.17
2019-04-03T22:07:28.231Z,96982.86
2019-04-03T22:09:56.191Z,96980.33
2019-04-03T22:12:24.766Z,96983.44
2019-04-03T22:14:53.339Z,96980.08
2019-04-03T22:17:22.460Z,96986.86
2019-04-03T22:19:51.103Z,96975.92
2019-04-03T22:22:19.640Z,96973.41
2019-04-03T22:24:48.191Z,96972.78
2019-04-03T22:27:16.949Z,96976.50
2019-04-03T22:29:45.641Z,96972.05
2019-04-03T22:32:14.523Z,96976.73
2019-04-03T22:34:43.409Z,96974.20
2019-04-03T22:37:15.166Z,96975.03
2019-04-03T22:39:43.708Z,96977.50
2019-04-03T22:42:14.727Z,96972.36
2019-04-03T22:44:42.557Z,96977.85
2019-04-03T22:47:11.002Z,96975.77
2019-04-03T22:49:39.610Z,96977.09
2019-04-03T22:52:08.888Z,96977.27
2019-04-03T22:54:37.950Z,96981.30
2019-04-03T22:57:06.683Z,96974.22
2019-04-03T22:59:35.178Z,96968.27
2019-04-03T23:02:03.725Z,96971.69
2019-04-03T23:04:32.216Z,96970.09
2019-04-03T23:07:01.773Z,96969.83
2019-04-03T23:09:30.211Z,96968.98
2019-04-03T23:11:58.709Z,96965.81
2019-04-03T23:14:28.494Z,96962.94
2019-04-03T23:16:57.087Z,96961.48
2019-04-03T23:19:25.539Z,96955.72
2019-04-03T23:21:54.782Z,96956.20
2019-04-03T23:24:24.161Z,96958.29
2019-04-03T23:26:52.648Z,96954.80
2019-04-03T23:29:21.314Z,96954.80
2019-04-03T23:31:49.898Z,96954.17
2019-04-03T23:34:19.204Z,96951.31
2019-04-03T23:36:48.491Z,96953.25
2019-04-03T23:39:17.177Z,96951.31
2019-04-03T23:41:46.064Z,96947.16
2019-04-03T23:44:14.747Z,96948.27
2019-04-03T23:46:45.401Z,96944.91
2019-04-03T23:49:13.632Z,96942.83
2019-04-03T23:51:42.143Z,96935.77
2019-04-03T23:54:10.813Z,96938.85
2019-04-03T23:56:39.485Z,96937.09
2019-04-03T23:59:08.092Z,96930.66
